首页
METAR-TAF:

METAR-TAF

机场 :

吉布提-安布利国际机场

吉布地, 吉布提

纬度: 11-33N, 经度: 043-10E, 海拔: 49米

当前天气观测

该预报发布于2小时和54分钟前的09:00 UTC
风速10节,风向北转东北
温度 38°C
湿度 51%
气压 1003 hPa
能见度10公里或以上
1500米以下无云,无积雨云

METAR: HDAM 130900Z 03010KT CAVOK 38/26 Q1003

时间: 14:54 (11:54 UTC)

预报

该预报发布于54分钟前的11:00 UTC
预报有效从13日的 12点(UTC)到 14日的 12点(UTC)
风速12节,风向东转东北
能見度: 9000
天空无云
成为
从 13日的 15点(UTC)到 13日的 21点(UTC)
风速5节,风向多变
少量云层高于13300英尺
成为
从 14日的 00点(UTC)到 14日的 06点(UTC)
风速节,风向
散云层高于13300英尺

TAF: HDAM 131100Z 1312/1412 06012KT 9000 HZ SKC BECMG 1315/1321 VRB05KT FEW133 BECMG 1400/1406 00000KT SCT133

超过4000个机场的气象观测和天气预报(METAR&TAF报告)。

可查询的气象台以黄色和红色小点在地图上表示。

将鼠标移到小点上方,可查看气象台名称。

然后点击查看天气观测和预报。

如需切换地图:点击带黑十字的绿色按钮放大地图;点击带横线的绿色按钮缩小地图;或者点击绿色箭头查看邻近地区的地图。


METAR-TAF: